sensor_id;sensor_type;location;lat;lon;timestamp;temperature;humidity
62464;SHT31;48512;48.552;9.380;2023-03-29T00:01:02;6.38;80.97
62464;SHT31;48512;48.552;9.380;2023-03-29T00:03:31;6.14;81.93
62464;SHT31;48512;48.552;9.380;2023-03-29T00:05:59;6.22;82.27
62464;SHT31;48512;48.552;9.380;2023-03-29T00:08:29;6.22;82.01
62464;SHT31;48512;48.552;9.380;2023-03-29T00:10:57;6.19;82.11
62464;SHT31;48512;48.552;9.380;2023-03-29T00:13:27;6.10;81.79
62464;SHT31;48512;48.552;9.380;2023-03-29T00:15:54;6.30;81.63
62464;SHT31;48512;48.552;9.380;2023-03-29T00:18:21;6.12;82.20
62464;SHT31;48512;48.552;9.380;2023-03-29T00:20:57;6.10;82.34
62464;SHT31;48512;48.552;9.380;2023-03-29T00:23:24;6.10;81.73
62464;SHT31;48512;48.552;9.380;2023-03-29T00:25:54;6.07;81.75
62464;SHT31;48512;48.552;9.380;2023-03-29T00:28:21;5.99;82.43
62464;SHT31;48512;48.552;9.380;2023-03-29T00:30:47;5.86;83.34
62464;SHT31;48512;48.552;9.380;2023-03-29T00:33:15;5.88;82.62
62464;SHT31;48512;48.552;9.380;2023-03-29T00:35:43;5.86;83.05
62464;SHT31;48512;48.552;9.380;2023-03-29T00:38:11;5.95;82.30
62464;SHT31;48512;48.552;9.380;2023-03-29T00:40:45;5.86;82.06
62464;SHT31;48512;48.552;9.380;2023-03-29T00:43:13;5.84;82.52
62464;SHT31;48512;48.552;9.380;2023-03-29T00:45:39;5.85;82.47
62464;SHT31;48512;48.552;9.380;2023-03-29T00:48:17;5.84;82.66
62464;SHT31;48512;48.552;9.380;2023-03-29T00:50:59;5.91;82.78
62464;SHT31;48512;48.552;9.380;2023-03-29T00:53:44;5.95;81.82
62464;SHT31;48512;48.552;9.380;2023-03-29T00:56:20;5.99;81.91
62464;SHT31;48512;48.552;9.380;2023-03-29T00:59:04;6.01;81.82
62464;SHT31;48512;48.552;9.380;2023-03-29T01:01:59;6.07;81.10
62464;SHT31;48512;48.552;9.380;2023-03-29T01:04:45;6.03;81.64
62464;SHT31;48512;48.552;9.380;2023-03-29T01:07:32;6.10;81.48
62464;SHT31;48512;48.552;9.380;2023-03-29T01:10:10;6.07;80.69
62464;SHT31;48512;48.552;9.380;2023-03-29T01:12:42;6.10;80.63
62464;SHT31;48512;48.552;9.380;2023-03-29T01:15:12;6.17;80.41
62464;SHT31;48512;48.552;9.380;2023-03-29T01:17:40;6.10;80.92
62464;SHT31;48512;48.552;9.380;2023-03-29T01:20:51;5.99;81.22
62464;SHT31;48512;48.552;9.380;2023-03-29T01:25:37;5.98;80.66
62464;SHT31;48512;48.552;9.380;2023-03-29T01:28:11;5.89;80.76
62464;SHT31;48512;48.552;9.380;2023-03-29T01:30:44;6.09;79.62
62464;SHT31;48512;48.552;9.380;2023-03-29T01:33:32;6.10;79.28
62464;SHT31;48512;48.552;9.380;2023-03-29T01:36:37;6.20;76.00
62464;SHT31;48512;48.552;9.380;2023-03-29T01:39:06;6.23;74.27
62464;SHT31;48512;48.552;9.380;2023-03-29T01:44:04;6.41;74.44
62464;SHT31;48512;48.552;9.380;2023-03-29T01:46:38;6.38;74.94
62464;SHT31;48512;48.552;9.380;2023-03-29T01:49:20;6.40;73.44
62464;SHT31;48512;48.552;9.380;2023-03-29T01:51:58;6.50;73.09
62464;SHT31;48512;48.552;9.380;2023-03-29T01:54:38;6.57;72.54
62464;SHT31;48512;48.552;9.380;2023-03-29T01:57:07;6.54;71.75
62464;SHT31;48512;48.552;9.380;2023-03-29T01:59:38;6.71;70.81
62464;SHT31;48512;48.552;9.380;2023-03-29T02:02:09;6.68;71.28
62464;SHT31;48512;48.552;9.380;2023-03-29T02:04:41;6.68;70.31
62464;SHT31;48512;48.552;9.380;2023-03-29T02:07:13;6.78;69.82
62464;SHT31;48512;48.552;9.380;2023-03-29T02:09:41;6.78;69.98
62464;SHT31;48512;48.552;9.380;2023-03-29T02:12:09;6.98;66.66
62464;SHT31;48512;48.552;9.380;2023-03-29T02:14:36;7.16;65.27
62464;SHT31;48512;48.552;9.380;2023-03-29T02:17:22;7.31;65.36
62464;SHT31;48512;48.552;9.380;2023-03-29T02:19:54;7.33;65.68
62464;SHT31;48512;48.552;9.380;2023-03-29T02:22:32;7.31;65.34
62464;SHT31;48512;48.552;9.380;2023-03-29T02:25:03;7.37;63.84
62464;SHT31;48512;48.552;9.380;2023-03-29T02:27:31;7.47;65.09
62464;SHT31;48512;48.552;9.380;2023-03-29T02:29:58;7.34;66.97
62464;SHT31;48512;48.552;9.380;2023-03-29T02:32:30;7.44;65.75
62464;SHT31;48512;48.552;9.380;2023-03-29T02:35:06;7.46;63.98
62464;SHT31;48512;48.552;9.380;2023-03-29T02:37:36;7.71;62.57
62464;SHT31;48512;48.552;9.380;2023-03-29T02:40:08;7.40;65.19
62464;SHT31;48512;48.552;9.380;2023-03-29T02:42:43;7.40;64.40
62464;SHT31;48512;48.552;9.380;2023-03-29T02:45:13;7.44;63.81
62464;SHT31;48512;48.552;9.380;2023-03-29T02:47:44;7.44;65.04
62464;SHT31;48512;48.552;9.380;2023-03-29T02:50:12;7.43;64.20
62464;SHT31;48512;48.552;9.380;2023-03-29T02:52:42;7.51;63.73
62464;SHT31;48512;48.552;9.380;2023-03-29T02:55:14;7.54;64.09
62464;SHT31;48512;48.552;9.380;2023-03-29T02:57:41;7.64;63.85
62464;SHT31;48512;48.552;9.380;2023-03-29T03:00:09;7.48;64.12
62464;SHT31;48512;48.552;9.380;2023-03-29T03:02:36;7.46;64.86
62464;SHT31;48512;48.552;9.380;2023-03-29T03:05:04;7.47;65.41
62464;SHT31;48512;48.552;9.380;2023-03-29T03:07:31;7.63;65.54
62464;SHT31;48512;48.552;9.380;2023-03-29T03:09:58;7.50;65.87
62464;SHT31;48512;48.552;9.380;2023-03-29T03:12:24;7.46;66.03
62464;SHT31;48512;48.552;9.380;2023-03-29T03:14:51;7.39;65.99
62464;SHT31;48512;48.552;9.380;2023-03-29T03:17:17;7.47;66.07
62464;SHT31;48512;48.552;9.380;2023-03-29T03:19:46;7.51;65.07
62464;SHT31;48512;48.552;9.380;2023-03-29T03:22:12;7.57;65.19
62464;SHT31;48512;48.552;9.380;2023-03-29T03:24:38;7.60;64.37
62464;SHT31;48512;48.552;9.380;2023-03-29T03:27:04;7.63;63.85
62464;SHT31;48512;48.552;9.380;2023-03-29T03:29:31;7.60;64.32
62464;SHT31;48512;48.552;9.380;2023-03-29T03:32:23;7.67;64.19
62464;SHT31;48512;48.552;9.380;2023-03-29T03:35:08;7.63;64.42
62464;SHT31;48512;48.552;9.380;2023-03-29T03:37:37;7.66;64.27
62464;SHT31;48512;48.552;9.380;2023-03-29T03:40:05;7.70;63.86
62464;SHT31;48512;48.552;9.380;2023-03-29T03:42:38;7.71;63.74
62464;SHT31;48512;48.552;9.380;2023-03-29T03:45:05;7.77;64.03
62464;SHT31;48512;48.552;9.380;2023-03-29T03:47:49;7.70;64.67
62464;SHT31;48512;48.552;9.380;2023-03-29T03:50:29;7.81;64.85
62464;SHT31;48512;48.552;9.380;2023-03-29T03:52:55;7.73;65.84
62464;SHT31;48512;48.552;9.380;2023-03-29T03:55:21;7.73;66.12
62464;SHT31;48512;48.552;9.380;2023-03-29T03:58:18;8.10;62.78
62464;SHT31;48512;48.552;9.380;2023-03-29T04:00:47;8.21;62.42
62464;SHT31;48512;48.552;9.380;2023-03-29T04:03:35;8.03;62.56
62464;SHT31;48512;48.552;9.380;2023-03-29T04:06:02;7.94;64.22
62464;SHT31;48512;48.552;9.380;2023-03-29T04:08:40;7.86;66.01
62464;SHT31;48512;48.552;9.380;2023-03-29T04:11:16;7.84;64.72
62464;SHT31;48512;48.552;9.380;2023-03-29T04:13:42;7.84;64.44
62464;SHT31;48512;48.552;9.380;2023-03-29T04:16:26;7.86;64.65
62464;SHT31;48512;48.552;9.380;2023-03-29T04:18:53;8.10;64.69
62464;SHT31;48512;48.552;9.380;2023-03-29T04:21:22;7.88;66.49
62464;SHT31;48512;48.552;9.380;2023-03-29T04:23:48;7.82;67.07
62464;SHT31;48512;48.552;9.380;2023-03-29T04:26:14;7.79;67.18
62464;SHT31;48512;48.552;9.380;2023-03-29T04:28:48;7.74;66.98
62464;SHT31;48512;48.552;9.380;2023-03-29T04:31:20;7.64;67.52
62464;SHT31;48512;48.552;9.380;2023-03-29T04:34:05;7.54;67.89
62464;SHT31;48512;48.552;9.380;2023-03-29T04:36:32;7.56;67.75
62464;SHT31;48512;48.552;9.380;2023-03-29T04:38:59;7.61;67.70
62464;SHT31;48512;48.552;9.380;2023-03-29T04:41:27;7.68;67.51
62464;SHT31;48512;48.552;9.380;2023-03-29T04:44:02;7.63;67.25
62464;SHT31;48512;48.552;9.380;2023-03-29T04:46:29;7.60;67.39
62464;SHT31;48512;48.552;9.380;2023-03-29T04:49:23;7.63;66.99
62464;SHT31;48512;48.552;9.380;2023-03-29T04:51:50;7.68;67.21
62464;SHT31;48512;48.552;9.380;2023-03-29T04:54:20;7.75;67.03
62464;SHT31;48512;48.552;9.380;2023-03-29T04:57:12;7.66;67.42
62464;SHT31;48512;48.552;9.380;2023-03-29T04:59:54;7.57;67.26
62464;SHT31;48512;48.552;9.380;2023-03-29T05:02:44;8.01;72.50
62464;SHT31;48512;48.552;9.380;2023-03-29T05:05:12;9.07;71.63
62464;SHT31;48512;48.552;9.380;2023-03-29T05:07:39;9.97;68.36
62464;SHT31;48512;48.552;9.380;2023-03-29T05:10:06;9.29;62.51
62464;SHT31;48512;48.552;9.380;2023-03-29T05:12:33;8.89;63.04
62464;SHT31;48512;48.552;9.380;2023-03-29T05:14:59;8.50;63.95
62464;SHT31;48512;48.552;9.380;2023-03-29T05:17:27;8.22;64.74
62464;SHT31;48512;48.552;9.380;2023-03-29T05:19:59;8.19;65.21
62464;SHT31;48512;48.552;9.380;2023-03-29T05:22:27;8.01;65.80
62464;SHT31;48512;48.552;9.380;2023-03-29T05:24:55;7.94;66.35
62464;SHT31;48512;48.552;9.380;2023-03-29T05:27:22;7.99;66.20
62464;SHT31;48512;48.552;9.380;2023-03-29T05:30:00;7.81;66.83
62464;SHT31;48512;48.552;9.380;2023-03-29T05:32:46;7.88;66.47
62464;SHT31;48512;48.552;9.380;2023-03-29T05:35:15;7.96;66.48
62464;SHT31;48512;48.552;9.380;2023-03-29T05:37:43;7.98;65.59
62464;SHT31;48512;48.552;9.380;2023-03-29T05:40:12;7.94;66.42
62464;SHT31;48512;48.552;9.380;2023-03-29T05:43:01;7.95;66.49
62464;SHT31;48512;48.552;9.380;2023-03-29T05:45:27;7.96;66.22
62464;SHT31;48512;48.552;9.380;2023-03-29T05:47:54;8.07;66.75
62464;SHT31;48512;48.552;9.380;2023-03-29T05:50:22;8.06;66.91
62464;SHT31;48512;48.552;9.380;2023-03-29T05:52:49;8.09;65.89
62464;SHT31;48512;48.552;9.380;2023-03-29T05:55:16;8.09;66.22
62464;SHT31;48512;48.552;9.380;2023-03-29T05:57:43;8.06;66.45
62464;SHT31;48512;48.552;9.380;2023-03-29T06:00:10;8.07;65.19
62464;SHT31;48512;48.552;9.380;2023-03-29T06:02:52;8.16;66.48
62464;SHT31;48512;48.552;9.380;2023-03-29T06:05:18;8.13;66.49
62464;SHT31;48512;48.552;9.380;2023-03-29T06:07:56;8.25;66.38
62464;SHT31;48512;48.552;9.380;2023-03-29T06:10:42;8.37;65.93
62464;SHT31;48512;48.552;9.380;2023-03-29T06:13:28;8.49;65.71
62464;SHT31;48512;48.552;9.380;2023-03-29T06:15:54;8.50;65.21
62464;SHT31;48512;48.552;9.380;2023-03-29T06:18:21;8.49;65.30
62464;SHT31;48512;48.552;9.380;2023-03-29T06:20:50;8.57;65.63
62464;SHT31;48512;48.552;9.380;2023-03-29T06:23:19;8.61;65.89
62464;SHT31;48512;48.552;9.380;2023-03-29T06:25:46;8.64;66.06
62464;SHT31;48512;48.552;9.380;2023-03-29T06:28:13;8.97;65.65
62464;SHT31;48512;48.552;9.380;2023-03-29T06:30:40;8.95;63.74
62464;SHT31;48512;48.552;9.380;2023-03-29T06:33:07;9.05;63.34
62464;SHT31;48512;48.552;9.380;2023-03-29T06:35:57;9.07;64.09
62464;SHT31;48512;48.552;9.380;2023-03-29T06:38:26;9.12;63.93
62464;SHT31;48512;48.552;9.380;2023-03-29T06:41:31;9.18;62.75
62464;SHT31;48512;48.552;9.380;2023-03-29T06:44:06;9.28;62.55
62464;SHT31;48512;48.552;9.380;2023-03-29T06:46:42;9.28;62.82
62464;SHT31;48512;48.552;9.380;2023-03-29T06:49:08;9.35;62.63
62464;SHT31;48512;48.552;9.380;2023-03-29T06:51:44;9.53;62.32
62464;SHT31;48512;48.552;9.380;2023-03-29T06:54:12;9.67;61.86
62464;SHT31;48512;48.552;9.380;2023-03-29T06:56:46;9.63;61.20
62464;SHT31;48512;48.552;9.380;2023-03-29T06:59:14;9.57;62.06
62464;SHT31;48512;48.552;9.380;2023-03-29T07:02:04;9.57;61.25
62464;SHT31;48512;48.552;9.380;2023-03-29T07:04:54;9.60;61.10
62464;SHT31;48512;48.552;9.380;2023-03-29T07:07:27;9.58;62.28
62464;SHT31;48512;48.552;9.380;2023-03-29T07:10:20;9.63;60.66
62464;SHT31;48512;48.552;9.380;2023-03-29T07:13:06;9.60;61.55
62464;SHT31;48512;48.552;9.380;2023-03-29T07:15:34;9.61;62.31
62464;SHT31;48512;48.552;9.380;2023-03-29T07:18:16;9.71;62.06
62464;SHT31;48512;48.552;9.380;2023-03-29T07:20:43;9.67;61.71
62464;SHT31;48512;48.552;9.380;2023-03-29T07:23:11;9.77;61.37
62464;SHT31;48512;48.552;9.380;2023-03-29T07:25:38;9.91;60.94
62464;SHT31;48512;48.552;9.380;2023-03-29T07:28:06;9.94;61.27
62464;SHT31;48512;48.552;9.380;2023-03-29T07:30:33;10.09;60.06
62464;SHT31;48512;48.552;9.380;2023-03-29T07:33:14;10.24;60.25
62464;SHT31;48512;48.552;9.380;2023-03-29T07:35:56;10.21;60.42
62464;SHT31;48512;48.552;9.380;2023-03-29T07:38:24;10.32;61.20
62464;SHT31;48512;48.552;9.380;2023-03-29T07:40:57;10.25;62.57
62464;SHT31;48512;48.552;9.380;2023-03-29T07:43:49;10.80;62.37
62464;SHT31;48512;48.552;9.380;2023-03-29T07:46:21;10.67;61.67
62464;SHT31;48512;48.552;9.380;2023-03-29T07:48:49;10.53;62.27
62464;SHT31;48512;48.552;9.380;2023-03-29T07:51:16;10.48;63.93
62464;SHT31;48512;48.552;9.380;2023-03-29T07:53:52;10.57;63.06
62464;SHT31;48512;48.552;9.380;2023-03-29T07:56:41;10.59;61.16
62464;SHT31;48512;48.552;9.380;2023-03-29T07:59:15;10.48;61.84
62464;SHT31;48512;48.552;9.380;2023-03-29T08:01:44;10.49;63.00
62464;SHT31;48512;48.552;9.380;2023-03-29T08:04:33;10.46;62.95
62464;SHT31;48512;48.552;9.380;2023-03-29T08:07:16;10.53;63.41
62464;SHT31;48512;48.552;9.380;2023-03-29T08:10:10;10.55;62.72
62464;SHT31;48512;48.552;9.380;2023-03-29T08:12:55;10.60;62.60
62464;SHT31;48512;48.552;9.380;2023-03-29T08:15:55;10.70;61.54
62464;SHT31;48512;48.552;9.380;2023-03-29T08:18:36;10.71;61.64
62464;SHT31;48512;48.552;9.380;2023-03-29T08:21:03;10.70;61.17
62464;SHT31;48512;48.552;9.380;2023-03-29T08:23:30;10.73;61.73
62464;SHT31;48512;48.552;9.380;2023-03-29T08:26:05;10.83;61.83
62464;SHT31;48512;48.552;9.380;2023-03-29T08:28:34;10.83;61.05
62464;SHT31;48512;48.552;9.380;2023-03-29T08:31:00;10.81;61.37
62464;SHT31;48512;48.552;9.380;2023-03-29T08:33:26;10.96;60.40
62464;SHT31;48512;48.552;9.380;2023-03-29T08:36:12;10.87;60.75
62464;SHT31;48512;48.552;9.380;2023-03-29T08:38:39;10.93;61.09
62464;SHT31;48512;48.552;9.380;2023-03-29T08:41:21;10.89;61.82
62464;SHT31;48512;48.552;9.380;2023-03-29T08:43:55;11.07;61.78
62464;SHT31;48512;48.552;9.380;2023-03-29T08:49:21;11.24;61.22
62464;SHT31;48512;48.552;9.380;2023-03-29T08:51:52;11.32;60.76
62464;SHT31;48512;48.552;9.380;2023-03-29T08:54:44;11.25;61.24
62464;SHT31;48512;48.552;9.380;2023-03-29T08:57:26;11.35;60.99
62464;SHT31;48512;48.552;9.380;2023-03-29T09:00:00;11.27;61.06
62464;SHT31;48512;48.552;9.380;2023-03-29T09:02:32;11.36;60.91
62464;SHT31;48512;48.552;9.380;2023-03-29T09:05:25;11.40;60.94
62464;SHT31;48512;48.552;9.380;2023-03-29T09:08:03;11.45;60.83
62464;SHT31;48512;48.552;9.380;2023-03-29T09:10:41;11.55;60.88
62464;SHT31;48512;48.552;9.380;2023-03-29T09:13:18;11.55;60.56
62464;SHT31;48512;48.552;9.380;2023-03-29T09:15:53;11.66;60.11
62464;SHT31;48512;48.552;9.380;2023-03-29T09:18:46;11.67;59.68
62464;SHT31;48512;48.552;9.380;2023-03-29T09:26:53;11.82;58.28
62464;SHT31;48512;48.552;9.380;2023-03-29T09:30:11;11.86;58.73
62464;SHT31;48512;48.552;9.380;2023-03-29T09:38:20;12.30;57.39
62464;SHT31;48512;48.552;9.380;2023-03-29T09:40:50;12.40;57.91
62464;SHT31;48512;48.552;9.380;2023-03-29T09:43:35;12.45;56.66
62464;SHT31;48512;48.552;9.380;2023-03-29T09:46:20;12.49;55.67
62464;SHT31;48512;48.552;9.380;2023-03-29T09:48:48;12.62;56.29
62464;SHT31;48512;48.552;9.380;2023-03-29T09:51:16;12.73;57.78
62464;SHT31;48512;48.552;9.380;2023-03-29T09:53:45;13.11;54.11
62464;SHT31;48512;48.552;9.380;2023-03-29T09:56:34;12.95;54.10
62464;SHT31;48512;48.552;9.380;2023-03-29T09:59:10;12.88;53.97
62464;SHT31;48512;48.552;9.380;2023-03-29T10:01:40;12.79;54.08
62464;SHT31;48512;48.552;9.380;2023-03-29T10:04:08;12.82;54.90
62464;SHT31;48512;48.552;9.380;2023-03-29T10:06:41;12.96;54.77
62464;SHT31;48512;48.552;9.380;2023-03-29T10:09:16;13.07;54.61
62464;SHT31;48512;48.552;9.380;2023-03-29T10:11:48;13.20;54.75
62464;SHT31;48512;48.552;9.380;2023-03-29T10:14:27;13.36;54.38
62464;SHT31;48512;48.552;9.380;2023-03-29T10:16:59;13.76;53.80
62464;SHT31;48512;48.552;9.380;2023-03-29T10:19:33;13.79;53.44
62464;SHT31;48512;48.552;9.380;2023-03-29T10:22:04;14.10;51.74
62464;SHT31;48512;48.552;9.380;2023-03-29T10:24:31;14.13;51.83
62464;SHT31;48512;48.552;9.380;2023-03-29T10:27:03;14.26;52.29
62464;SHT31;48512;48.552;9.380;2023-03-29T10:29:40;14.58;50.89
62464;SHT31;48512;48.552;9.380;2023-03-29T10:32:37;14.45;51.08
62464;SHT31;48512;48.552;9.380;2023-03-29T10:37:43;14.64;52.34
62464;SHT31;48512;48.552;9.380;2023-03-29T10:40:26;14.84;52.71
62464;SHT31;48512;48.552;9.380;2023-03-29T10:42:57;15.36;49.81
62464;SHT31;48512;48.552;9.380;2023-03-29T10:45:27;16.04;48.68
62464;SHT31;48512;48.552;9.380;2023-03-29T10:47:55;16.25;48.58
62464;SHT31;48512;48.552;9.380;2023-03-29T10:50:23;16.19;48.19
62464;SHT31;48512;48.552;9.380;2023-03-29T10:52:49;16.38;49.51
62464;SHT31;48512;48.552;9.380;2023-03-29T10:55:16;16.25;47.74
62464;SHT31;48512;48.552;9.380;2023-03-29T10:57:50;16.61;47.51
62464;SHT31;48512;48.552;9.380;2023-03-29T11:06:53;17.60;45.53
62464;SHT31;48512;48.552;9.380;2023-03-29T11:08:58;18.45;44.64
62464;SHT31;48512;48.552;9.380;2023-03-29T11:19:55;17.76;44.43
62464;SHT31;48512;48.552;9.380;2023-03-29T11:25:29;17.76;43.55
62464;SHT31;48512;48.552;9.380;2023-03-29T11:28:55;17.62;44.71
62464;SHT31;48512;48.552;9.380;2023-03-29T11:36:15;17.12;43.42
62464;SHT31;48512;48.552;9.380;2023-03-29T11:41:35;17.24;42.56
62464;SHT31;48512;48.552;9.380;2023-03-29T11:44:15;17.19;42.92
62464;SHT31;48512;48.552;9.380;2023-03-29T11:46:48;17.36;44.67
62464;SHT31;48512;48.552;9.380;2023-03-29T11:49:28;17.38;43.12
62464;SHT31;48512;48.552;9.380;2023-03-29T11:52:13;17.15;43.78
62464;SHT31;48512;48.552;9.380;2023-03-29T11:54:50;17.32;43.64
62464;SHT31;48512;48.552;9.380;2023-03-29T12:02:43;17.18;43.78
62464;SHT31;48512;48.552;9.380;2023-03-29T12:05:14;17.26;42.98
62464;SHT31;48512;48.552;9.380;2023-03-29T12:07:49;17.08;44.07
62464;SHT31;48512;48.552;9.380;2023-03-29T12:10:19;17.14;43.92
62464;SHT31;48512;48.552;9.380;2023-03-29T12:13:06;17.24;43.74
62464;SHT31;48512;48.552;9.380;2023-03-29T12:15:39;17.16;43.94
62464;SHT31;48512;48.552;9.380;2023-03-29T12:21:22;17.03;44.11
62464;SHT31;48512;48.552;9.380;2023-03-29T12:23:51;17.10;43.16
62464;SHT31;48512;48.552;9.380;2023-03-29T12:32:47;16.92;45.44
62464;SHT31;48512;48.552;9.380;2023-03-29T12:38:21;16.83;43.64
62464;SHT31;48512;48.552;9.380;2023-03-29T12:41:24;16.76;44.02
62464;SHT31;48512;48.552;9.380;2023-03-29T12:44:14;16.60;47.54
62464;SHT31;48512;48.552;9.380;2023-03-29T12:46:52;16.68;46.14
62464;SHT31;48512;48.552;9.380;2023-03-29T12:49:34;16.81;47.42
62464;SHT31;48512;48.552;9.380;2023-03-29T12:52:13;16.97;45.36
62464;SHT31;48512;48.552;9.380;2023-03-29T12:54:55;16.95;44.61
62464;SHT31;48512;48.552;9.380;2023-03-29T12:57:26;16.87;45.39
62464;SHT31;48512;48.552;9.380;2023-03-29T12:59:52;16.88;45.81
62464;SHT31;48512;48.552;9.380;2023-03-29T13:02:25;16.92;46.85
62464;SHT31;48512;48.552;9.380;2023-03-29T13:04:54;16.74;48.89
62464;SHT31;48512;48.552;9.380;2023-03-29T13:12:43;17.12;50.84
62464;SHT31;48512;48.552;9.380;2023-03-29T13:17:48;16.85;48.92
62464;SHT31;48512;48.552;9.380;2023-03-29T13:20:45;16.78;50.48
62464;SHT31;48512;48.552;9.380;2023-03-29T13:26:23;16.68;50.31
62464;SHT31;48512;48.552;9.380;2023-03-29T13:29:02;16.87;50.42
62464;SHT31;48512;48.552;9.380;2023-03-29T13:38:17;16.70;50.15
62464;SHT31;48512;48.552;9.380;2023-03-29T13:40:45;16.57;51.32
62464;SHT31;48512;48.552;9.380;2023-03-29T13:43:20;16.55;49.14
62464;SHT31;48512;48.552;9.380;2023-03-29T13:48:31;16.46;50.10
62464;SHT31;48512;48.552;9.380;2023-03-29T13:53:52;16.33;54.98
62464;SHT31;48512;48.552;9.380;2023-03-29T13:59:43;15.98;58.69
62464;SHT31;48512;48.552;9.380;2023-03-29T14:02:20;15.90;58.10
62464;SHT31;48512;48.552;9.380;2023-03-29T14:04:48;15.90;60.35
62464;SHT31;48512;48.552;9.380;2023-03-29T14:07:19;15.68;66.65
62464;SHT31;48512;48.552;9.380;2023-03-29T14:09:51;15.57;60.33
62464;SHT31;48512;48.552;9.380;2023-03-29T14:12:18;15.75;60.04
62464;SHT31;48512;48.552;9.380;2023-03-29T14:14:45;15.81;64.23
62464;SHT31;48512;48.552;9.380;2023-03-29T14:17:18;15.90;63.33
62464;SHT31;48512;48.552;9.380;2023-03-29T14:19:46;15.85;63.19
62464;SHT31;48512;48.552;9.380;2023-03-29T14:22:14;15.71;64.72
62464;SHT31;48512;48.552;9.380;2023-03-29T14:24:47;15.54;67.17
62464;SHT31;48512;48.552;9.380;2023-03-29T14:27:16;15.44;67.01
62464;SHT31;48512;48.552;9.380;2023-03-29T14:29:45;15.46;67.51
62464;SHT31;48512;48.552;9.380;2023-03-29T14:32:18;15.55;66.56
62464;SHT31;48512;48.552;9.380;2023-03-29T14:34:48;15.60;65.64
62464;SHT31;48512;48.552;9.380;2023-03-29T14:37:23;15.61;63.46
62464;SHT31;48512;48.552;9.380;2023-03-29T14:39:50;15.61;63.16
62464;SHT31;48512;48.552;9.380;2023-03-29T14:42:19;15.51;62.24
62464;SHT31;48512;48.552;9.380;2023-03-29T14:44:49;15.54;62.73
62464;SHT31;48512;48.552;9.380;2023-03-29T14:47:29;15.42;64.23
62464;SHT31;48512;48.552;9.380;2023-03-29T14:49:59;15.44;63.76
62464;SHT31;48512;48.552;9.380;2023-03-29T14:52:28;15.35;62.33
62464;SHT31;48512;48.552;9.380;2023-03-29T14:54:57;15.42;60.10
62464;SHT31;48512;48.552;9.380;2023-03-29T14:57:26;15.49;60.36
62464;SHT31;48512;48.552;9.380;2023-03-29T14:59:58;15.54;58.47
62464;SHT31;48512;48.552;9.380;2023-03-29T15:02:29;15.54;59.15
62464;SHT31;48512;48.552;9.380;2023-03-29T15:05:02;15.51;56.95
62464;SHT31;48512;48.552;9.380;2023-03-29T15:07:33;15.53;57.47
62464;SHT31;48512;48.552;9.380;2023-03-29T15:10:03;15.60;56.57
62464;SHT31;48512;48.552;9.380;2023-03-29T15:12:34;15.61;57.13
62464;SHT31;48512;48.552;9.380;2023-03-29T15:15:00;15.63;55.69
62464;SHT31;48512;48.552;9.380;2023-03-29T15:17:43;15.78;55.98
62464;SHT31;48512;48.552;9.380;2023-03-29T15:20:17;15.82;56.11
62464;SHT31;48512;48.552;9.380;2023-03-29T15:23:00;15.73;55.86
62464;SHT31;48512;48.552;9.380;2023-03-29T15:25:54;15.82;54.62
62464;SHT31;48512;48.552;9.380;2023-03-29T15:31:30;15.97;55.41
62464;SHT31;48512;48.552;9.380;2023-03-29T15:34:11;16.02;57.24
62464;SHT31;48512;48.552;9.380;2023-03-29T15:36:40;16.02;54.85
62464;SHT31;48512;48.552;9.380;2023-03-29T15:39:15;16.04;53.62
62464;SHT31;48512;48.552;9.380;2023-03-29T15:41:42;16.05;52.82
62464;SHT31;48512;48.552;9.380;2023-03-29T15:44:10;16.22;54.59
62464;SHT31;48512;48.552;9.380;2023-03-29T15:46:36;16.49;52.81
62464;SHT31;48512;48.552;9.380;2023-03-29T15:49:02;16.30;52.08
62464;SHT31;48512;48.552;9.380;2023-03-29T15:51:30;16.28;52.45
62464;SHT31;48512;48.552;9.380;2023-03-29T15:53:56;16.38;51.68
62464;SHT31;48512;48.552;9.380;2023-03-29T15:56:22;16.66;52.74
62464;SHT31;48512;48.552;9.380;2023-03-29T15:58:48;16.66;50.72
62464;SHT31;48512;48.552;9.380;2023-03-29T16:01:34;16.74;49.98
62464;SHT31;48512;48.552;9.380;2023-03-29T16:04:19;16.84;50.41
62464;SHT31;48512;48.552;9.380;2023-03-29T16:06:51;16.80;51.42
62464;SHT31;48512;48.552;9.380;2023-03-29T16:09:19;16.64;50.75
62464;SHT31;48512;48.552;9.380;2023-03-29T16:11:46;16.57;50.96
62464;SHT31;48512;48.552;9.380;2023-03-29T16:16:52;16.56;50.75
62464;SHT31;48512;48.552;9.380;2023-03-29T16:19:20;16.46;50.85
62464;SHT31;48512;48.552;9.380;2023-03-29T16:21:47;16.42;50.47
62464;SHT31;48512;48.552;9.380;2023-03-29T16:24:21;16.40;50.52
62464;SHT31;48512;48.552;9.380;2023-03-29T16:26:49;16.33;51.43
62464;SHT31;48512;48.552;9.380;2023-03-29T16:29:16;16.22;51.54
62464;SHT31;48512;48.552;9.380;2023-03-29T16:31:47;16.16;51.89
62464;SHT31;48512;48.552;9.380;2023-03-29T16:34:14;16.16;52.38
62464;SHT31;48512;48.552;9.380;2023-03-29T16:36:45;16.13;52.63
62464;SHT31;48512;48.552;9.380;2023-03-29T16:39:11;16.18;53.63
62464;SHT31;48512;48.552;9.380;2023-03-29T16:41:39;16.12;54.32
62464;SHT31;48512;48.552;9.380;2023-03-29T16:44:06;16.06;54.51
62464;SHT31;48512;48.552;9.380;2023-03-29T16:46:33;16.09;55.67
62464;SHT31;48512;48.552;9.380;2023-03-29T16:48:59;16.05;56.50
62464;SHT31;48512;48.552;9.380;2023-03-29T16:51:25;16.01;55.96
62464;SHT31;48512;48.552;9.380;2023-03-29T16:53:51;16.00;55.93
62464;SHT31;48512;48.552;9.380;2023-03-29T16:56:18;16.01;55.26
62464;SHT31;48512;48.552;9.380;2023-03-29T16:58:44;15.94;55.47
62464;SHT31;48512;48.552;9.380;2023-03-29T17:01:15;16.09;58.25
62464;SHT31;48512;48.552;9.380;2023-03-29T17:03:42;16.34;56.00
62464;SHT31;48512;48.552;9.380;2023-03-29T17:06:10;16.42;57.77
62464;SHT31;48512;48.552;9.380;2023-03-29T17:08:37;16.56;57.46
62464;SHT31;48512;48.552;9.380;2023-03-29T17:11:04;16.77;57.29
62464;SHT31;48512;48.552;9.380;2023-03-29T17:13:31;16.83;55.81
62464;SHT31;48512;48.552;9.380;2023-03-29T17:15:58;16.36;57.37
62464;SHT31;48512;48.552;9.380;2023-03-29T17:18:25;15.95;58.44
62464;SHT31;48512;48.552;9.380;2023-03-29T17:20:55;15.84;56.68
62464;SHT31;48512;48.552;9.380;2023-03-29T17:23:22;15.68;57.60
62464;SHT31;48512;48.552;9.380;2023-03-29T17:25:48;15.64;56.91
62464;SHT31;48512;48.552;9.380;2023-03-29T17:28:15;15.85;59.70
62464;SHT31;48512;48.552;9.380;2023-03-29T17:30:43;15.84;56.63
62464;SHT31;48512;48.552;9.380;2023-03-29T17:33:10;15.73;55.91
62464;SHT31;48512;48.552;9.380;2023-03-29T17:35:44;15.58;58.06
62464;SHT31;48512;48.552;9.380;2023-03-29T17:38:10;15.50;58.15
62464;SHT31;48512;48.552;9.380;2023-03-29T17:40:37;15.36;58.84
62464;SHT31;48512;48.552;9.380;2023-03-29T17:43:04;15.30;58.97
62464;SHT31;48512;48.552;9.380;2023-03-29T17:45:30;15.25;60.15
62464;SHT31;48512;48.552;9.380;2023-03-29T17:47:57;15.16;60.90
62464;SHT31;48512;48.552;9.380;2023-03-29T17:50:23;15.20;61.63
62464;SHT31;48512;48.552;9.380;2023-03-29T17:52:50;14.98;62.12